EHPG

P11-b Sea

P11-b Sea, The Netherlands
METAR EHPG 241125Z AUTO 31018KT 260V360 9999 SCT035 SCT040 13/05 Q1035 W///H///
Observed Flight Rules
Sep-24 @ 11:25 UTC (34 minutes ago) Visual Flight Rules
Wind Visibility Clouds
310° at 18 knots 10,000+ meters
  • Scattered at 3,500' AGL
  • Scattered at 4,000' AGL
Temperatures Readings
Current 13°C / 55°F
Dewpoint 5°C / 41°F
Humidity 59%
Altimeter 30.56" Hg
Pressure 1035 hPa
Elevation 50
METAR EHPG 241125Z AUTO 31018KT 260V360 9999 SCT035 SCT040 13/05 Q1035 W///H///
Observed Flight Rules
Sep-24 @ 11:25 UTC
(34 minutes ago)
VFR
Wind Visibility
310° at 18 knots 10,000+ meters
Clouds
  • Scattered at 3,500' AGL
  • Scattered at 4,000' AGL
Temperature Dewpoint
13°C / 55°F 5°C / 41°F
Humidity Altimeter Pressure
59% 30.56" Hg 1035 hPa